sensor_id;sensor_type;location;lat;lon;timestamp;temperature;humidity
15364;DHT22;7781;49.690;6.472;2023-10-31T00:01:01;10.90;99.90
15364;DHT22;7781;49.690;6.472;2023-10-31T00:03:32;10.80;99.90
15364;DHT22;7781;49.690;6.472;2023-10-31T00:06:01;10.90;99.90
15364;DHT22;7781;49.690;6.472;2023-10-31T00:08:30;10.90;99.90
15364;DHT22;7781;49.690;6.472;2023-10-31T00:10:58;10.80;99.90
15364;DHT22;7781;49.690;6.472;2023-10-31T00:13:27;10.80;99.90
15364;DHT22;7781;49.690;6.472;2023-10-31T00:15:55;10.80;99.90
15364;DHT22;7781;49.690;6.472;2023-10-31T00:18:25;10.70;99.90
15364;DHT22;7781;49.690;6.472;2023-10-31T00:20:55;10.60;99.90
15364;DHT22;7781;49.690;6.472;2023-10-31T00:23:24;10.60;99.90
15364;DHT22;7781;49.690;6.472;2023-10-31T00:25:52;10.60;99.90
15364;DHT22;7781;49.690;6.472;2023-10-31T00:28:20;10.60;99.90
15364;DHT22;7781;49.690;6.472;2023-10-31T00:30:49;10.60;99.90
15364;DHT22;7781;49.690;6.472;2023-10-31T00:33:17;10.60;99.90
15364;DHT22;7781;49.690;6.472;2023-10-31T00:35:46;10.60;99.90
15364;DHT22;7781;49.690;6.472;2023-10-31T00:38:16;10.60;99.90
15364;DHT22;7781;49.690;6.472;2023-10-31T00:40:44;10.60;99.90
15364;DHT22;7781;49.690;6.472;2023-10-31T00:43:13;10.60;99.90
15364;DHT22;7781;49.690;6.472;2023-10-31T00:45:41;10.60;99.90
15364;DHT22;7781;49.690;6.472;2023-10-31T00:48:10;10.60;99.90
15364;DHT22;7781;49.690;6.472;2023-10-31T00:50:38;10.60;99.90
15364;DHT22;7781;49.690;6.472;2023-10-31T00:53:07;10.60;99.90
15364;DHT22;7781;49.690;6.472;2023-10-31T00:55:37;10.60;99.90
15364;DHT22;7781;49.690;6.472;2023-10-31T00:58:05;10.60;99.90
15364;DHT22;7781;49.690;6.472;2023-10-31T01:00:34;10.50;99.90
15364;DHT22;7781;49.690;6.472;2023-10-31T01:03:04;10.50;99.90
15364;DHT22;7781;49.690;6.472;2023-10-31T01:05:33;10.50;99.90
15364;DHT22;7781;49.690;6.472;2023-10-31T01:08:02;10.50;99.90
15364;DHT22;7781;49.690;6.472;2023-10-31T01:10:32;10.60;99.90
15364;DHT22;7781;49.690;6.472;2023-10-31T01:13:02;10.50;99.90
15364;DHT22;7781;49.690;6.472;2023-10-31T01:15:30;10.50;99.90
15364;DHT22;7781;49.690;6.472;2023-10-31T01:18:00;10.50;99.90
15364;DHT22;7781;49.690;6.472;2023-10-31T01:20:30;10.50;99.90
15364;DHT22;7781;49.690;6.472;2023-10-31T01:22:59;10.50;99.90
15364;DHT22;7781;49.690;6.472;2023-10-31T01:25:28;10.50;99.90
15364;DHT22;7781;49.690;6.472;2023-10-31T01:27:58;10.50;99.90
15364;DHT22;7781;49.690;6.472;2023-10-31T01:30:28;10.50;99.90
15364;DHT22;7781;49.690;6.472;2023-10-31T01:32:57;10.50;99.90
15364;DHT22;7781;49.690;6.472;2023-10-31T01:35:26;10.50;99.90
15364;DHT22;7781;49.690;6.472;2023-10-31T01:37:55;10.50;99.90
15364;DHT22;7781;49.690;6.472;2023-10-31T01:40:24;10.50;99.90
15364;DHT22;7781;49.690;6.472;2023-10-31T01:42:54;10.50;99.90
15364;DHT22;7781;49.690;6.472;2023-10-31T01:45:23;10.50;99.90
15364;DHT22;7781;49.690;6.472;2023-10-31T01:47:53;10.50;99.90
15364;DHT22;7781;49.690;6.472;2023-10-31T01:50:22;10.50;99.90
15364;DHT22;7781;49.690;6.472;2023-10-31T01:52:52;10.50;99.90
15364;DHT22;7781;49.690;6.472;2023-10-31T01:55:21;10.50;99.90
15364;DHT22;7781;49.690;6.472;2023-10-31T01:57:49;10.50;99.90
15364;DHT22;7781;49.690;6.472;2023-10-31T02:00:18;10.50;99.90
15364;DHT22;7781;49.690;6.472;2023-10-31T02:02:46;10.50;99.90
15364;DHT22;7781;49.690;6.472;2023-10-31T02:05:17;10.50;99.90
15364;DHT22;7781;49.690;6.472;2023-10-31T02:07:48;10.50;99.90
15364;DHT22;7781;49.690;6.472;2023-10-31T02:10:17;10.50;99.90
15364;DHT22;7781;49.690;6.472;2023-10-31T02:12:45;10.50;99.90
15364;DHT22;7781;49.690;6.472;2023-10-31T02:15:15;10.50;99.90
15364;DHT22;7781;49.690;6.472;2023-10-31T02:17:44;10.50;99.90
15364;DHT22;7781;49.690;6.472;2023-10-31T02:20:12;10.50;99.90
15364;DHT22;7781;49.690;6.472;2023-10-31T02:22:43;10.50;99.90
15364;DHT22;7781;49.690;6.472;2023-10-31T02:25:17;10.50;99.90
15364;DHT22;7781;49.690;6.472;2023-10-31T02:27:47;10.50;99.90
15364;DHT22;7781;49.690;6.472;2023-10-31T02:30:16;10.40;99.90
15364;DHT22;7781;49.690;6.472;2023-10-31T02:32:46;10.40;99.90
15364;DHT22;7781;49.690;6.472;2023-10-31T02:35:16;10.40;99.90
15364;DHT22;7781;49.690;6.472;2023-10-31T02:37:46;10.50;99.90
15364;DHT22;7781;49.690;6.472;2023-10-31T02:40:15;10.40;99.90
15364;DHT22;7781;49.690;6.472;2023-10-31T02:42:44;10.50;99.90
15364;DHT22;7781;49.690;6.472;2023-10-31T02:45:12;10.50;99.90
15364;DHT22;7781;49.690;6.472;2023-10-31T02:47:42;10.50;99.90
15364;DHT22;7781;49.690;6.472;2023-10-31T02:50:11;10.50;99.90
15364;DHT22;7781;49.690;6.472;2023-10-31T02:52:40;10.40;99.90
15364;DHT22;7781;49.690;6.472;2023-10-31T02:55:10;10.40;99.90
15364;DHT22;7781;49.690;6.472;2023-10-31T02:57:38;10.40;99.90
15364;DHT22;7781;49.690;6.472;2023-10-31T03:00:07;10.40;99.90
15364;DHT22;7781;49.690;6.472;2023-10-31T03:02:37;10.30;99.90
15364;DHT22;7781;49.690;6.472;2023-10-31T03:05:06;10.30;99.90
15364;DHT22;7781;49.690;6.472;2023-10-31T03:07:35;10.30;99.90
15364;DHT22;7781;49.690;6.472;2023-10-31T03:10:04;10.30;99.90
15364;DHT22;7781;49.690;6.472;2023-10-31T03:12:35;10.30;99.90
15364;DHT22;7781;49.690;6.472;2023-10-31T03:15:04;10.30;99.90
15364;DHT22;7781;49.690;6.472;2023-10-31T03:17:34;10.30;99.90
15364;DHT22;7781;49.690;6.472;2023-10-31T03:20:04;10.30;99.90
15364;DHT22;7781;49.690;6.472;2023-10-31T03:22:33;10.30;99.90
15364;DHT22;7781;49.690;6.472;2023-10-31T03:25:02;10.30;99.90
15364;DHT22;7781;49.690;6.472;2023-10-31T03:27:31;10.20;99.90
15364;DHT22;7781;49.690;6.472;2023-10-31T03:30:02;10.20;99.90
15364;DHT22;7781;49.690;6.472;2023-10-31T03:32:31;10.20;99.90
15364;DHT22;7781;49.690;6.472;2023-10-31T03:35:00;10.20;99.90
15364;DHT22;7781;49.690;6.472;2023-10-31T03:37:28;10.20;99.90
15364;DHT22;7781;49.690;6.472;2023-10-31T03:39:57;10.20;99.90
15364;DHT22;7781;49.690;6.472;2023-10-31T03:42:27;10.20;99.90
15364;DHT22;7781;49.690;6.472;2023-10-31T03:44:57;10.20;99.90
15364;DHT22;7781;49.690;6.472;2023-10-31T03:47:27;10.20;99.90
15364;DHT22;7781;49.690;6.472;2023-10-31T03:49:55;10.20;99.90
15364;DHT22;7781;49.690;6.472;2023-10-31T03:52:24;10.20;99.90
15364;DHT22;7781;49.690;6.472;2023-10-31T03:54:52;10.20;99.90
15364;DHT22;7781;49.690;6.472;2023-10-31T03:57:21;10.20;99.90
15364;DHT22;7781;49.690;6.472;2023-10-31T03:59:50;10.10;99.90
15364;DHT22;7781;49.690;6.472;2023-10-31T04:02:19;10.10;99.90
15364;DHT22;7781;49.690;6.472;2023-10-31T04:04:49;10.20;99.90
15364;DHT22;7781;49.690;6.472;2023-10-31T04:07:18;10.20;99.90
15364;DHT22;7781;49.690;6.472;2023-10-31T04:09:46;10.10;99.90
15364;DHT22;7781;49.690;6.472;2023-10-31T04:12:16;10.20;99.90
15364;DHT22;7781;49.690;6.472;2023-10-31T04:14:46;10.10;99.90
15364;DHT22;7781;49.690;6.472;2023-10-31T04:17:14;10.10;99.90
15364;DHT22;7781;49.690;6.472;2023-10-31T04:19:43;10.10;99.90
15364;DHT22;7781;49.690;6.472;2023-10-31T04:22:13;10.10;99.90
15364;DHT22;7781;49.690;6.472;2023-10-31T04:24:41;10.20;99.90
15364;DHT22;7781;49.690;6.472;2023-10-31T04:27:10;10.20;99.90
15364;DHT22;7781;49.690;6.472;2023-10-31T04:29:38;10.20;99.90
15364;DHT22;7781;49.690;6.472;2023-10-31T04:32:07;10.20;99.90
15364;DHT22;7781;49.690;6.472;2023-10-31T04:34:36;10.10;99.90
15364;DHT22;7781;49.690;6.472;2023-10-31T04:37:05;10.10;99.90
15364;DHT22;7781;49.690;6.472;2023-10-31T04:39:36;10.10;99.90
15364;DHT22;7781;49.690;6.472;2023-10-31T04:42:04;10.10;99.90
15364;DHT22;7781;49.690;6.472;2023-10-31T04:44:33;10.10;99.90
15364;DHT22;7781;49.690;6.472;2023-10-31T04:47:03;10.10;99.90
15364;DHT22;7781;49.690;6.472;2023-10-31T04:49:34;10.10;99.90
15364;DHT22;7781;49.690;6.472;2023-10-31T04:52:04;10.10;99.90
15364;DHT22;7781;49.690;6.472;2023-10-31T04:54:32;10.10;99.90
15364;DHT22;7781;49.690;6.472;2023-10-31T04:57:03;10.10;99.90
15364;DHT22;7781;49.690;6.472;2023-10-31T04:59:32;10.10;99.90
15364;DHT22;7781;49.690;6.472;2023-10-31T05:02:00;10.10;99.90
15364;DHT22;7781;49.690;6.472;2023-10-31T05:04:29;10.10;99.90
15364;DHT22;7781;49.690;6.472;2023-10-31T05:06:58;10.10;99.90
15364;DHT22;7781;49.690;6.472;2023-10-31T05:09:27;10.00;99.90
15364;DHT22;7781;49.690;6.472;2023-10-31T05:11:57;10.00;99.90
15364;DHT22;7781;49.690;6.472;2023-10-31T05:14:27;10.00;99.90
15364;DHT22;7781;49.690;6.472;2023-10-31T05:16:56;10.00;99.90
15364;DHT22;7781;49.690;6.472;2023-10-31T05:19:25;10.00;99.90
15364;DHT22;7781;49.690;6.472;2023-10-31T05:21:53;10.00;99.90
15364;DHT22;7781;49.690;6.472;2023-10-31T05:24:22;10.00;99.90
15364;DHT22;7781;49.690;6.472;2023-10-31T05:26:51;10.00;99.90
15364;DHT22;7781;49.690;6.472;2023-10-31T05:29:20;10.10;99.90
15364;DHT22;7781;49.690;6.472;2023-10-31T05:31:50;10.10;99.90
15364;DHT22;7781;49.690;6.472;2023-10-31T05:34:19;10.10;99.90
15364;DHT22;7781;49.690;6.472;2023-10-31T05:36:48;10.10;99.90
15364;DHT22;7781;49.690;6.472;2023-10-31T05:39:17;10.10;99.90
15364;DHT22;7781;49.690;6.472;2023-10-31T05:41:46;10.10;99.90
15364;DHT22;7781;49.690;6.472;2023-10-31T05:44:15;10.00;99.90
15364;DHT22;7781;49.690;6.472;2023-10-31T05:46:44;10.00;99.90
15364;DHT22;7781;49.690;6.472;2023-10-31T05:49:14;10.00;99.90
15364;DHT22;7781;49.690;6.472;2023-10-31T05:51:43;10.10;99.90
15364;DHT22;7781;49.690;6.472;2023-10-31T05:54:11;10.00;99.90
15364;DHT22;7781;49.690;6.472;2023-10-31T05:56:39;10.00;99.90
15364;DHT22;7781;49.690;6.472;2023-10-31T05:59:09;10.00;99.90
15364;DHT22;7781;49.690;6.472;2023-10-31T06:01:39;10.00;99.90
15364;DHT22;7781;49.690;6.472;2023-10-31T06:04:07;10.00;99.90
15364;DHT22;7781;49.690;6.472;2023-10-31T06:06:38;10.00;99.90
15364;DHT22;7781;49.690;6.472;2023-10-31T06:09:07;10.00;99.90
15364;DHT22;7781;49.690;6.472;2023-10-31T06:11:40;10.00;99.90
15364;DHT22;7781;49.690;6.472;2023-10-31T06:14:08;10.00;99.90
15364;DHT22;7781;49.690;6.472;2023-10-31T06:16:41;10.00;99.90
15364;DHT22;7781;49.690;6.472;2023-10-31T06:19:10;10.00;99.90
15364;DHT22;7781;49.690;6.472;2023-10-31T06:21:40;10.00;99.90
15364;DHT22;7781;49.690;6.472;2023-10-31T06:24:10;10.00;99.90
15364;DHT22;7781;49.690;6.472;2023-10-31T06:26:38;10.00;99.90
15364;DHT22;7781;49.690;6.472;2023-10-31T06:29:07;10.00;99.90
15364;DHT22;7781;49.690;6.472;2023-10-31T06:31:55;10.00;99.90
15364;DHT22;7781;49.690;6.472;2023-10-31T06:34:24;10.10;99.90
15364;DHT22;7781;49.690;6.472;2023-10-31T06:36:56;10.00;99.90
15364;DHT22;7781;49.690;6.472;2023-10-31T06:39:25;10.00;99.90
15364;DHT22;7781;49.690;6.472;2023-10-31T06:41:54;10.00;99.90
15364;DHT22;7781;49.690;6.472;2023-10-31T06:47:18;10.00;99.90
15364;DHT22;7781;49.690;6.472;2023-10-31T06:49:47;10.00;99.90
15364;DHT22;7781;49.690;6.472;2023-10-31T06:52:18;10.00;99.90
15364;DHT22;7781;49.690;6.472;2023-10-31T06:54:46;10.00;99.90
15364;DHT22;7781;49.690;6.472;2023-10-31T06:57:15;10.00;99.90
15364;DHT22;7781;49.690;6.472;2023-10-31T06:59:43;10.00;99.90
15364;DHT22;7781;49.690;6.472;2023-10-31T07:02:13;10.00;99.90
15364;DHT22;7781;49.690;6.472;2023-10-31T07:04:42;10.00;99.90
15364;DHT22;7781;49.690;6.472;2023-10-31T07:07:11;10.00;99.90
15364;DHT22;7781;49.690;6.472;2023-10-31T07:09:40;10.00;99.90
15364;DHT22;7781;49.690;6.472;2023-10-31T07:12:09;10.10;99.90
15364;DHT22;7781;49.690;6.472;2023-10-31T07:14:37;10.10;99.90
15364;DHT22;7781;49.690;6.472;2023-10-31T07:17:06;10.10;99.90
15364;DHT22;7781;49.690;6.472;2023-10-31T07:19:34;10.10;99.90
15364;DHT22;7781;49.690;6.472;2023-10-31T07:22:04;10.10;99.90
15364;DHT22;7781;49.690;6.472;2023-10-31T07:24:34;10.20;99.90
15364;DHT22;7781;49.690;6.472;2023-10-31T07:27:05;10.30;99.90
15364;DHT22;7781;49.690;6.472;2023-10-31T07:29:33;10.30;99.90
15364;DHT22;7781;49.690;6.472;2023-10-31T07:32:02;10.30;99.90
15364;DHT22;7781;49.690;6.472;2023-10-31T07:34:32;10.30;99.90
15364;DHT22;7781;49.690;6.472;2023-10-31T07:37:01;10.20;99.90
15364;DHT22;7781;49.690;6.472;2023-10-31T07:39:29;10.20;99.90
15364;DHT22;7781;49.690;6.472;2023-10-31T07:41:58;10.20;99.90
15364;DHT22;7781;49.690;6.472;2023-10-31T07:44:28;10.20;99.90
15364;DHT22;7781;49.690;6.472;2023-10-31T07:46:57;10.10;99.90
15364;DHT22;7781;49.690;6.472;2023-10-31T07:49:26;10.10;99.90
15364;DHT22;7781;49.690;6.472;2023-10-31T07:51:56;10.20;99.90
15364;DHT22;7781;49.690;6.472;2023-10-31T07:54:24;10.20;99.90
15364;DHT22;7781;49.690;6.472;2023-10-31T07:56:52;10.20;99.90
15364;DHT22;7781;49.690;6.472;2023-10-31T07:59:22;10.20;99.90
15364;DHT22;7781;49.690;6.472;2023-10-31T08:01:52;10.20;99.90
15364;DHT22;7781;49.690;6.472;2023-10-31T08:04:20;10.20;99.90
15364;DHT22;7781;49.690;6.472;2023-10-31T08:06:49;10.30;99.90
15364;DHT22;7781;49.690;6.472;2023-10-31T08:09:18;10.30;99.90
15364;DHT22;7781;49.690;6.472;2023-10-31T08:11:46;10.30;99.90
15364;DHT22;7781;49.690;6.472;2023-10-31T08:14:15;10.30;99.90
15364;DHT22;7781;49.690;6.472;2023-10-31T08:16:44;10.40;99.90
15364;DHT22;7781;49.690;6.472;2023-10-31T08:19:14;10.30;99.90
15364;DHT22;7781;49.690;6.472;2023-10-31T08:21:43;10.30;99.90
15364;DHT22;7781;49.690;6.472;2023-10-31T08:24:11;10.30;99.90
15364;DHT22;7781;49.690;6.472;2023-10-31T08:26:40;10.30;99.90
15364;DHT22;7781;49.690;6.472;2023-10-31T08:29:08;10.30;99.90
15364;DHT22;7781;49.690;6.472;2023-10-31T08:31:37;10.40;99.90
15364;DHT22;7781;49.690;6.472;2023-10-31T08:34:05;10.40;99.90
15364;DHT22;7781;49.690;6.472;2023-10-31T08:36:35;10.40;99.90
15364;DHT22;7781;49.690;6.472;2023-10-31T08:39:04;10.50;99.90
15364;DHT22;7781;49.690;6.472;2023-10-31T08:41:33;10.60;99.90
15364;DHT22;7781;49.690;6.472;2023-10-31T08:44:04;10.60;99.90
15364;DHT22;7781;49.690;6.472;2023-10-31T08:46:33;10.70;99.90
15364;DHT22;7781;49.690;6.472;2023-10-31T08:49:01;10.70;99.90
15364;DHT22;7781;49.690;6.472;2023-10-31T08:51:30;10.80;99.90
15364;DHT22;7781;49.690;6.472;2023-10-31T08:54:00;10.90;99.90
15364;DHT22;7781;49.690;6.472;2023-10-31T08:56:28;11.00;99.90
15364;DHT22;7781;49.690;6.472;2023-10-31T08:58:57;11.10;99.90
15364;DHT22;7781;49.690;6.472;2023-10-31T09:01:26;11.20;99.90
15364;DHT22;7781;49.690;6.472;2023-10-31T09:03:55;11.20;99.90
15364;DHT22;7781;49.690;6.472;2023-10-31T09:06:25;11.30;99.90
15364;DHT22;7781;49.690;6.472;2023-10-31T09:08:54;11.40;99.90
15364;DHT22;7781;49.690;6.472;2023-10-31T09:11:25;11.30;99.90
15364;DHT22;7781;49.690;6.472;2023-10-31T09:13:53;11.30;99.90
15364;DHT22;7781;49.690;6.472;2023-10-31T09:16:22;11.30;99.90
15364;DHT22;7781;49.690;6.472;2023-10-31T09:18:50;11.30;99.90
15364;DHT22;7781;49.690;6.472;2023-10-31T09:21:19;11.30;99.90
15364;DHT22;7781;49.690;6.472;2023-10-31T09:23:48;11.30;99.90
15364;DHT22;7781;49.690;6.472;2023-10-31T09:26:17;11.40;99.90
15364;DHT22;7781;49.690;6.472;2023-10-31T09:28:47;11.40;99.90
15364;DHT22;7781;49.690;6.472;2023-10-31T09:31:18;11.40;99.90
15364;DHT22;7781;49.690;6.472;2023-10-31T09:33:47;11.50;99.90
15364;DHT22;7781;49.690;6.472;2023-10-31T09:36:16;11.50;99.90
15364;DHT22;7781;49.690;6.472;2023-10-31T09:38:45;11.50;99.90
15364;DHT22;7781;49.690;6.472;2023-10-31T09:41:14;11.60;99.90
15364;DHT22;7781;49.690;6.472;2023-10-31T09:43:43;11.70;99.90
15364;DHT22;7781;49.690;6.472;2023-10-31T09:46:13;11.80;99.90
15364;DHT22;7781;49.690;6.472;2023-10-31T09:48:42;11.90;99.90
15364;DHT22;7781;49.690;6.472;2023-10-31T09:51:13;11.90;99.90
15364;DHT22;7781;49.690;6.472;2023-10-31T09:53:44;12.00;99.90
15364;DHT22;7781;49.690;6.472;2023-10-31T09:56:15;12.10;99.90
15364;DHT22;7781;49.690;6.472;2023-10-31T09:58:44;12.20;99.90
15364;DHT22;7781;49.690;6.472;2023-10-31T10:01:15;12.30;99.90
15364;DHT22;7781;49.690;6.472;2023-10-31T10:03:43;12.30;99.90
15364;DHT22;7781;49.690;6.472;2023-10-31T10:06:14;12.30;99.90
15364;DHT22;7781;49.690;6.472;2023-10-31T10:08:43;12.30;99.90
15364;DHT22;7781;49.690;6.472;2023-10-31T10:11:14;12.30;99.90
15364;DHT22;7781;49.690;6.472;2023-10-31T10:13:43;12.20;99.90
15364;DHT22;7781;49.690;6.472;2023-10-31T10:16:28;12.00;99.90
15364;DHT22;7781;49.690;6.472;2023-10-31T10:18:57;11.90;99.90
15364;DHT22;7781;49.690;6.472;2023-10-31T10:21:47;11.90;99.90
15364;DHT22;7781;49.690;6.472;2023-10-31T10:24:16;12.00;99.90
15364;DHT22;7781;49.690;6.472;2023-10-31T10:26:44;12.00;99.90
15364;DHT22;7781;49.690;6.472;2023-10-31T10:29:13;12.10;99.90
15364;DHT22;7781;49.690;6.472;2023-10-31T10:31:43;12.10;99.90
15364;DHT22;7781;49.690;6.472;2023-10-31T10:34:14;12.10;99.90
15364;DHT22;7781;49.690;6.472;2023-10-31T10:36:46;12.10;99.90
15364;DHT22;7781;49.690;6.472;2023-10-31T10:39:19;12.10;99.90
15364;DHT22;7781;49.690;6.472;2023-10-31T10:41:52;12.10;99.90
15364;DHT22;7781;49.690;6.472;2023-10-31T10:44:32;12.10;99.90
15364;DHT22;7781;49.690;6.472;2023-10-31T10:47:04;12.00;99.90
15364;DHT22;7781;49.690;6.472;2023-10-31T10:49:34;12.10;99.90
15364;DHT22;7781;49.690;6.472;2023-10-31T10:52:16;12.10;99.90
15364;DHT22;7781;49.690;6.472;2023-10-31T10:54:52;12.00;99.90
15364;DHT22;7781;49.690;6.472;2023-10-31T10:57:31;12.10;99.90
15364;DHT22;7781;49.690;6.472;2023-10-31T11:00:04;12.10;99.90
15364;DHT22;7781;49.690;6.472;2023-10-31T11:02:35;12.20;99.90
15364;DHT22;7781;49.690;6.472;2023-10-31T11:05:05;12.10;99.90
15364;DHT22;7781;49.690;6.472;2023-10-31T11:07:37;12.10;99.90
15364;DHT22;7781;49.690;6.472;2023-10-31T11:10:07;12.20;99.90
15364;DHT22;7781;49.690;6.472;2023-10-31T11:12:37;12.20;99.90
15364;DHT22;7781;49.690;6.472;2023-10-31T11:15:13;12.20;99.90
15364;DHT22;7781;49.690;6.472;2023-10-31T11:17:45;12.20;99.90
15364;DHT22;7781;49.690;6.472;2023-10-31T11:20:16;12.10;99.90
15364;DHT22;7781;49.690;6.472;2023-10-31T11:22:46;12.20;99.90
15364;DHT22;7781;49.690;6.472;2023-10-31T11:25:19;12.20;99.90
15364;DHT22;7781;49.690;6.472;2023-10-31T11:28:11;12.30;99.90
15364;DHT22;7781;49.690;6.472;2023-10-31T11:30:40;12.30;99.90
15364;DHT22;7781;49.690;6.472;2023-10-31T11:33:16;12.20;99.90
15364;DHT22;7781;49.690;6.472;2023-10-31T11:35:50;12.30;99.90
15364;DHT22;7781;49.690;6.472;2023-10-31T11:38:31;12.30;99.90
15364;DHT22;7781;49.690;6.472;2023-10-31T11:41:02;12.30;99.90
15364;DHT22;7781;49.690;6.472;2023-10-31T11:43:53;12.30;99.90
15364;DHT22;7781;49.690;6.472;2023-10-31T11:46:23;12.30;99.90
15364;DHT22;7781;49.690;6.472;2023-10-31T11:48:55;12.30;99.90
15364;DHT22;7781;49.690;6.472;2023-10-31T11:51:26;12.40;99.90
15364;DHT22;7781;49.690;6.472;2023-10-31T11:53:54;12.50;99.90
15364;DHT22;7781;49.690;6.472;2023-10-31T11:56:24;12.70;99.90
15364;DHT22;7781;49.690;6.472;2023-10-31T11:58:58;12.90;99.90
15364;DHT22;7781;49.690;6.472;2023-10-31T12:01:27;13.10;99.90
15364;DHT22;7781;49.690;6.472;2023-10-31T12:03:57;13.20;99.90
15364;DHT22;7781;49.690;6.472;2023-10-31T12:06:26;13.30;99.90
15364;DHT22;7781;49.690;6.472;2023-10-31T12:08:59;13.30;99.90
15364;DHT22;7781;49.690;6.472;2023-10-31T12:11:28;13.20;99.90
15364;DHT22;7781;49.690;6.472;2023-10-31T12:13:59;13.20;99.90
15364;DHT22;7781;49.690;6.472;2023-10-31T12:16:30;13.10;99.90
15364;DHT22;7781;49.690;6.472;2023-10-31T12:19:02;13.00;99.90
15364;DHT22;7781;49.690;6.472;2023-10-31T12:21:44;12.90;99.90
15364;DHT22;7781;49.690;6.472;2023-10-31T12:24:16;12.90;99.90
15364;DHT22;7781;49.690;6.472;2023-10-31T12:26:46;12.90;99.90
15364;DHT22;7781;49.690;6.472;2023-10-31T12:29:17;13.00;99.90
15364;DHT22;7781;49.690;6.472;2023-10-31T12:31:48;13.20;99.90
15364;DHT22;7781;49.690;6.472;2023-10-31T12:34:23;13.50;99.90
15364;DHT22;7781;49.690;6.472;2023-10-31T12:36:53;13.90;99.90
15364;DHT22;7781;49.690;6.472;2023-10-31T12:39:24;14.20;99.90
15364;DHT22;7781;49.690;6.472;2023-10-31T12:41:53;14.40;99.90
15364;DHT22;7781;49.690;6.472;2023-10-31T12:44:26;14.70;77.60
15364;DHT22;7781;49.690;6.472;2023-10-31T12:46:56;14.60;57.80
15364;DHT22;7781;49.690;6.472;2023-10-31T12:49:26;14.50;99.90
15364;DHT22;7781;49.690;6.472;2023-10-31T12:51:56;14.60;99.90
15364;DHT22;7781;49.690;6.472;2023-10-31T12:54:29;14.50;99.30
15364;DHT22;7781;49.690;6.472;2023-10-31T12:56:59;14.40;92.80
15364;DHT22;7781;49.690;6.472;2023-10-31T12:59:28;14.10;83.70
15364;DHT22;7781;49.690;6.472;2023-10-31T13:01:57;14.00;99.20
15364;DHT22;7781;49.690;6.472;2023-10-31T13:04:29;13.80;99.90
15364;DHT22;7781;49.690;6.472;2023-10-31T13:07:00;13.70;99.90
15364;DHT22;7781;49.690;6.472;2023-10-31T13:09:31;13.60;99.90
15364;DHT22;7781;49.690;6.472;2023-10-31T13:12:03;13.60;99.90
15364;DHT22;7781;49.690;6.472;2023-10-31T13:14:33;13.60;99.90
15364;DHT22;7781;49.690;6.472;2023-10-31T13:17:04;13.50;99.90
15364;DHT22;7781;49.690;6.472;2023-10-31T13:19:35;13.50;93.20
15364;DHT22;7781;49.690;6.472;2023-10-31T13:22:04;13.60;1.00
15364;DHT22;7781;49.690;6.472;2023-10-31T13:24:33;13.50;1.00
15364;DHT22;7781;49.690;6.472;2023-10-31T13:27:02;13.70;42.20
15364;DHT22;7781;49.690;6.472;2023-10-31T13:29:31;13.70;1.00
15364;DHT22;7781;49.690;6.472;2023-10-31T13:32:00;13.70;1.00
15364;DHT22;7781;49.690;6.472;2023-10-31T13:34:30;13.70;1.00
15364;DHT22;7781;49.690;6.472;2023-10-31T13:37:02;13.60;1.00
15364;DHT22;7781;49.690;6.472;2023-10-31T13:39:31;13.50;1.00
15364;DHT22;7781;49.690;6.472;2023-10-31T13:41:59;13.30;17.10
15364;DHT22;7781;49.690;6.472;2023-10-31T13:44:28;13.20;99.90
15364;DHT22;7781;49.690;6.472;2023-10-31T13:46:56;13.10;99.90
15364;DHT22;7781;49.690;6.472;2023-10-31T13:49:25;13.10;99.90
15364;DHT22;7781;49.690;6.472;2023-10-31T13:51:53;13.10;99.90
15364;DHT22;7781;49.690;6.472;2023-10-31T13:54:23;13.10;99.90
15364;DHT22;7781;49.690;6.472;2023-10-31T13:56:52;13.20;99.90
15364;DHT22;7781;49.690;6.472;2023-10-31T13:59:20;13.20;99.90
15364;DHT22;7781;49.690;6.472;2023-10-31T14:01:49;13.20;99.90
15364;DHT22;7781;49.690;6.472;2023-10-31T14:04:18;13.20;99.90
15364;DHT22;7781;49.690;6.472;2023-10-31T14:06:49;13.30;99.90
15364;DHT22;7781;49.690;6.472;2023-10-31T14:09:19;13.20;99.90
15364;DHT22;7781;49.690;6.472;2023-10-31T14:11:50;13.20;99.90
15364;DHT22;7781;49.690;6.472;2023-10-31T14:14:19;13.30;99.90
15364;DHT22;7781;49.690;6.472;2023-10-31T14:16:48;13.30;99.90
15364;DHT22;7781;49.690;6.472;2023-10-31T14:19:17;13.40;99.90
15364;DHT22;7781;49.690;6.472;2023-10-31T14:21:45;13.40;99.90
15364;DHT22;7781;49.690;6.472;2023-10-31T14:24:14;13.40;99.90
15364;DHT22;7781;49.690;6.472;2023-10-31T14:26:42;13.40;99.90
15364;DHT22;7781;49.690;6.472;2023-10-31T14:29:12;13.30;99.90
15364;DHT22;7781;49.690;6.472;2023-10-31T14:31:42;13.20;99.90
15364;DHT22;7781;49.690;6.472;2023-10-31T14:34:11;13.20;99.90
15364;DHT22;7781;49.690;6.472;2023-10-31T14:36:40;13.30;99.90
15364;DHT22;7781;49.690;6.472;2023-10-31T14:39:09;13.40;99.90
15364;DHT22;7781;49.690;6.472;2023-10-31T14:41:39;13.30;99.90
15364;DHT22;7781;49.690;6.472;2023-10-31T14:44:07;13.30;99.90
15364;DHT22;7781;49.690;6.472;2023-10-31T14:46:38;13.20;99.90
15364;DHT22;7781;49.690;6.472;2023-10-31T14:49:07;13.20;99.90
15364;DHT22;7781;49.690;6.472;2023-10-31T14:51:37;13.10;99.90
15364;DHT22;7781;49.690;6.472;2023-10-31T14:54:05;13.10;99.90
15364;DHT22;7781;49.690;6.472;2023-10-31T14:56:34;13.00;99.90
15364;DHT22;7781;49.690;6.472;2023-10-31T14:59:05;12.90;99.90
15364;DHT22;7781;49.690;6.472;2023-10-31T15:01:38;12.90;99.90
15364;DHT22;7781;49.690;6.472;2023-10-31T15:04:06;12.90;99.90
15364;DHT22;7781;49.690;6.472;2023-10-31T15:06:35;12.90;99.90
15364;DHT22;7781;49.690;6.472;2023-10-31T15:09:06;12.90;99.90
15364;DHT22;7781;49.690;6.472;2023-10-31T15:11:34;12.90;99.90
15364;DHT22;7781;49.690;6.472;2023-10-31T15:14:04;12.90;99.90
15364;DHT22;7781;49.690;6.472;2023-10-31T15:16:33;12.80;99.90
15364;DHT22;7781;49.690;6.472;2023-10-31T15:19:03;12.80;99.90
15364;DHT22;7781;49.690;6.472;2023-10-31T15:21:32;12.70;99.90
15364;DHT22;7781;49.690;6.472;2023-10-31T15:24:02;12.70;99.90
15364;DHT22;7781;49.690;6.472;2023-10-31T15:26:34;12.50;99.90
15364;DHT22;7781;49.690;6.472;2023-10-31T15:29:05;12.40;99.90
15364;DHT22;7781;49.690;6.472;2023-10-31T15:31:34;12.30;99.90
15364;DHT22;7781;49.690;6.472;2023-10-31T15:34:05;12.30;99.90
15364;DHT22;7781;49.690;6.472;2023-10-31T15:36:33;12.10;99.90
15364;DHT22;7781;49.690;6.472;2023-10-31T15:39:03;12.10;99.90
15364;DHT22;7781;49.690;6.472;2023-10-31T15:41:31;12.00;99.90
15364;DHT22;7781;49.690;6.472;2023-10-31T15:44:00;12.00;99.90
15364;DHT22;7781;49.690;6.472;2023-10-31T15:46:29;11.90;99.90
15364;DHT22;7781;49.690;6.472;2023-10-31T15:48:58;11.90;99.90
15364;DHT22;7781;49.690;6.472;2023-10-31T15:51:30;12.00;99.90
15364;DHT22;7781;49.690;6.472;2023-10-31T15:53:59;11.90;99.90
15364;DHT22;7781;49.690;6.472;2023-10-31T15:56:31;11.90;99.90
15364;DHT22;7781;49.690;6.472;2023-10-31T15:58:59;11.90;99.90
15364;DHT22;7781;49.690;6.472;2023-10-31T16:01:29;11.90;99.90
15364;DHT22;7781;49.690;6.472;2023-10-31T16:03:57;11.90;99.90
15364;DHT22;7781;49.690;6.472;2023-10-31T16:06:26;11.80;99.90